sensor_id;sensor_type;location;lat;lon;timestamp;P1;durP1;ratioP1;P2;durP2;ratioP2
56653;SDS011;45096;52.302;4.634;2022-09-09T00:02:18;1.92;;;1.15;;
56653;SDS011;45096;52.302;4.634;2022-09-09T00:04:51;1.40;;;1.30;;
56653;SDS011;45096;52.302;4.634;2022-09-09T00:07:24;2.95;;;1.10;;
56653;SDS011;45096;52.302;4.634;2022-09-09T00:10:00;2.17;;;1.17;;
56653;SDS011;45096;52.302;4.634;2022-09-09T00:12:32;1.27;;;1.10;;
56653;SDS011;45096;52.302;4.634;2022-09-09T00:15:02;1.30;;;1.20;;
56653;SDS011;45096;52.302;4.634;2022-09-09T00:17:32;1.20;;;1.10;;
56653;SDS011;45096;52.302;4.634;2022-09-09T00:20:02;1.85;;;1.00;;
56653;SDS011;45096;52.302;4.634;2022-09-09T00:22:34;1.15;;;1.05;;
56653;SDS011;45096;52.302;4.634;2022-09-09T00:25:02;3.42;;;1.25;;
56653;SDS011;45096;52.302;4.634;2022-09-09T00:27:36;1.80;;;1.50;;
56653;SDS011;45096;52.302;4.634;2022-09-09T00:30:13;1.30;;;1.20;;
56653;SDS011;45096;52.302;4.634;2022-09-09T00:32:42;1.23;;;1.13;;
56653;SDS011;45096;52.302;4.634;2022-09-09T00:35:13;1.17;;;1.17;;
56653;SDS011;45096;52.302;4.634;2022-09-09T00:37:41;1.55;;;1.45;;
56653;SDS011;45096;52.302;4.634;2022-09-09T00:40:11;1.63;;;1.42;;
56653;SDS011;45096;52.302;4.634;2022-09-09T00:42:44;1.58;;;1.48;;
56653;SDS011;45096;52.302;4.634;2022-09-09T00:45:18;2.08;;;1.90;;
56653;SDS011;45096;52.302;4.634;2022-09-09T00:47:50;1.90;;;1.80;;
56653;SDS011;45096;52.302;4.634;2022-09-09T00:50:19;2.40;;;1.73;;
56653;SDS011;45096;52.302;4.634;2022-09-09T00:52:59;2.40;;;1.85;;
56653;SDS011;45096;52.302;4.634;2022-09-09T00:55:33;2.03;;;1.80;;
56653;SDS011;45096;52.302;4.634;2022-09-09T00:58:01;2.58;;;1.65;;
56653;SDS011;45096;52.302;4.634;2022-09-09T01:00:29;1.88;;;1.77;;
56653;SDS011;45096;52.302;4.634;2022-09-09T01:02:58;2.40;;;1.95;;
56653;SDS011;45096;52.302;4.634;2022-09-09T01:05:30;3.55;;;2.22;;
56653;SDS011;45096;52.302;4.634;2022-09-09T01:08:00;2.80;;;2.28;;
56653;SDS011;45096;52.302;4.634;2022-09-09T01:10:29;2.45;;;2.25;;
56653;SDS011;45096;52.302;4.634;2022-09-09T01:13:00;2.85;;;2.60;;
56653;SDS011;45096;52.302;4.634;2022-09-09T01:15:30;2.10;;;2.00;;
56653;SDS011;45096;52.302;4.634;2022-09-09T01:17:58;2.58;;;2.17;;
56653;SDS011;45096;52.302;4.634;2022-09-09T01:20:26;3.15;;;2.20;;
56653;SDS011;45096;52.302;4.634;2022-09-09T01:23:04;3.40;;;2.30;;
56653;SDS011;45096;52.302;4.634;2022-09-09T01:26:03;3.53;;;2.75;;
56653;SDS011;45096;52.302;4.634;2022-09-09T01:28:33;2.28;;;2.08;;
56653;SDS011;45096;52.302;4.634;2022-09-09T01:31:00;3.35;;;2.42;;
56653;SDS011;45096;52.302;4.634;2022-09-09T01:33:25;3.47;;;2.47;;
56653;SDS011;45096;52.302;4.634;2022-09-09T01:35:52;3.90;;;2.72;;
56653;SDS011;45096;52.302;4.634;2022-09-09T01:38:19;3.67;;;2.45;;
56653;SDS011;45096;52.302;4.634;2022-09-09T01:40:45;3.95;;;2.67;;
56653;SDS011;45096;52.302;4.634;2022-09-09T01:43:12;3.45;;;2.80;;
56653;SDS011;45096;52.302;4.634;2022-09-09T01:45:38;3.35;;;3.00;;
56653;SDS011;45096;52.302;4.634;2022-09-09T01:48:04;2.95;;;2.60;;
56653;SDS011;45096;52.302;4.634;2022-09-09T01:50:30;5.10;;;3.15;;
56653;SDS011;45096;52.302;4.634;2022-09-09T01:52:56;2.63;;;2.30;;
56653;SDS011;45096;52.302;4.634;2022-09-09T01:55:26;3.28;;;2.53;;
56653;SDS011;45096;52.302;4.634;2022-09-09T01:57:56;3.00;;;2.67;;
56653;SDS011;45096;52.302;4.634;2022-09-09T02:00:32;4.75;;;3.30;;
56653;SDS011;45096;52.302;4.634;2022-09-09T02:03:00;3.00;;;2.80;;
56653;SDS011;45096;52.302;4.634;2022-09-09T02:05:32;2.70;;;2.50;;
56653;SDS011;45096;52.302;4.634;2022-09-09T02:08:03;4.32;;;2.80;;
56653;SDS011;45096;52.302;4.634;2022-09-09T02:10:32;3.38;;;3.08;;
56653;SDS011;45096;52.302;4.634;2022-09-09T02:13:00;4.82;;;2.97;;
56653;SDS011;45096;52.302;4.634;2022-09-09T02:15:29;3.38;;;3.08;;
56653;SDS011;45096;52.302;4.634;2022-09-09T02:18:00;3.00;;;2.72;;
56653;SDS011;45096;52.302;4.634;2022-09-09T02:20:29;4.13;;;3.13;;
56653;SDS011;45096;52.302;4.634;2022-09-09T02:22:56;3.70;;;3.38;;
56653;SDS011;45096;52.302;4.634;2022-09-09T02:25:22;4.07;;;3.00;;
56653;SDS011;45096;52.302;4.634;2022-09-09T02:27:49;3.88;;;2.90;;
56653;SDS011;45096;52.302;4.634;2022-09-09T02:30:15;3.15;;;2.72;;
56653;SDS011;45096;52.302;4.634;2022-09-09T02:32:43;4.20;;;3.25;;
56653;SDS011;45096;52.302;4.634;2022-09-09T02:35:11;3.65;;;3.00;;
56653;SDS011;45096;52.302;4.634;2022-09-09T02:37:38;3.38;;;3.08;;
56653;SDS011;45096;52.302;4.634;2022-09-09T02:40:04;3.35;;;2.88;;
56653;SDS011;45096;52.302;4.634;2022-09-09T02:42:32;5.53;;;3.50;;
56653;SDS011;45096;52.302;4.634;2022-09-09T02:44:59;4.30;;;3.13;;
56653;SDS011;45096;52.302;4.634;2022-09-09T02:47:25;3.05;;;2.85;;
56653;SDS011;45096;52.302;4.634;2022-09-09T02:49:59;2.88;;;2.67;;
56653;SDS011;45096;52.302;4.634;2022-09-09T02:52:31;3.15;;;2.85;;
56653;SDS011;45096;52.302;4.634;2022-09-09T02:54:59;3.20;;;2.60;;
56653;SDS011;45096;52.302;4.634;2022-09-09T02:57:30;3.25;;;3.00;;
56653;SDS011;45096;52.302;4.634;2022-09-09T02:59:57;2.88;;;2.63;;
56653;SDS011;45096;52.302;4.634;2022-09-09T03:02:23;4.22;;;2.90;;
56653;SDS011;45096;52.302;4.634;2022-09-09T03:04:48;6.28;;;2.97;;
56653;SDS011;45096;52.302;4.634;2022-09-09T03:07:15;3.03;;;2.70;;
56653;SDS011;45096;52.302;4.634;2022-09-09T03:09:43;3.25;;;2.55;;
56653;SDS011;45096;52.302;4.634;2022-09-09T03:12:10;2.88;;;2.67;;
56653;SDS011;45096;52.302;4.634;2022-09-09T03:14:39;2.83;;;2.53;;
56653;SDS011;45096;52.302;4.634;2022-09-09T03:17:04;3.65;;;2.38;;
56653;SDS011;45096;52.302;4.634;2022-09-09T03:19:30;4.40;;;2.90;;
56653;SDS011;45096;52.302;4.634;2022-09-09T03:21:56;3.67;;;2.33;;
56653;SDS011;45096;52.302;4.634;2022-09-09T03:24:23;2.67;;;2.47;;
56653;SDS011;45096;52.302;4.634;2022-09-09T03:26:48;2.97;;;2.30;;
56653;SDS011;45096;52.302;4.634;2022-09-09T03:29:14;2.55;;;2.35;;
56653;SDS011;45096;52.302;4.634;2022-09-09T03:31:39;2.45;;;1.90;;
56653;SDS011;45096;52.302;4.634;2022-09-09T03:34:05;2.75;;;2.53;;
56653;SDS011;45096;52.302;4.634;2022-09-09T03:36:31;2.67;;;2.47;;
56653;SDS011;45096;52.302;4.634;2022-09-09T03:38:57;2.35;;;2.25;;
56653;SDS011;45096;52.302;4.634;2022-09-09T03:41:24;3.60;;;2.70;;
56653;SDS011;45096;52.302;4.634;2022-09-09T03:43:50;3.05;;;2.17;;
56653;SDS011;45096;52.302;4.634;2022-09-09T03:46:15;2.88;;;2.35;;
56653;SDS011;45096;52.302;4.634;2022-09-09T03:48:42;2.08;;;1.95;;
56653;SDS011;45096;52.302;4.634;2022-09-09T03:51:08;3.55;;;3.10;;
56653;SDS011;45096;52.302;4.634;2022-09-09T03:53:34;2.70;;;2.50;;
56653;SDS011;45096;52.302;4.634;2022-09-09T03:55:59;3.30;;;2.88;;
56653;SDS011;45096;52.302;4.634;2022-09-09T03:58:26;2.47;;;2.28;;
56653;SDS011;45096;52.302;4.634;2022-09-09T04:00:52;2.75;;;2.42;;
56653;SDS011;45096;52.302;4.634;2022-09-09T04:03:19;4.68;;;2.55;;
56653;SDS011;45096;52.302;4.634;2022-09-09T04:05:44;3.03;;;2.83;;
56653;SDS011;45096;52.302;4.634;2022-09-09T04:08:10;3.35;;;2.70;;
56653;SDS011;45096;52.302;4.634;2022-09-09T04:10:35;2.63;;;2.42;;
56653;SDS011;45096;52.302;4.634;2022-09-09T04:13:01;3.33;;;2.30;;
56653;SDS011;45096;52.302;4.634;2022-09-09T04:15:28;5.25;;;3.10;;
56653;SDS011;45096;52.302;4.634;2022-09-09T04:17:53;3.33;;;2.33;;
56653;SDS011;45096;52.302;4.634;2022-09-09T04:20:19;2.90;;;2.50;;
56653;SDS011;45096;52.302;4.634;2022-09-09T04:22:44;3.53;;;2.70;;
56653;SDS011;45096;52.302;4.634;2022-09-09T04:25:10;2.33;;;2.05;;
56653;SDS011;45096;52.302;4.634;2022-09-09T04:27:35;3.17;;;2.55;;
56653;SDS011;45096;52.302;4.634;2022-09-09T04:30:00;3.03;;;2.78;;
56653;SDS011;45096;52.302;4.634;2022-09-09T04:32:27;2.70;;;2.50;;
56653;SDS011;45096;52.302;4.634;2022-09-09T04:34:57;2.50;;;2.17;;
56653;SDS011;45096;52.302;4.634;2022-09-09T04:37:22;2.33;;;2.10;;
56653;SDS011;45096;52.302;4.634;2022-09-09T04:39:48;3.03;;;2.38;;
56653;SDS011;45096;52.302;4.634;2022-09-09T04:42:13;2.25;;;2.10;;
56653;SDS011;45096;52.302;4.634;2022-09-09T04:44:41;3.40;;;2.60;;
56653;SDS011;45096;52.302;4.634;2022-09-09T04:47:07;3.05;;;2.83;;
56653;SDS011;45096;52.302;4.634;2022-09-09T04:49:34;3.55;;;2.33;;
56653;SDS011;45096;52.302;4.634;2022-09-09T04:51:59;2.47;;;2.28;;
56653;SDS011;45096;52.302;4.634;2022-09-09T04:54:24;3.30;;;2.55;;
56653;SDS011;45096;52.302;4.634;2022-09-09T04:56:50;2.72;;;2.42;;
56653;SDS011;45096;52.302;4.634;2022-09-09T04:59:15;5.65;;;2.25;;
56653;SDS011;45096;52.302;4.634;2022-09-09T05:01:41;2.90;;;2.63;;
56653;SDS011;45096;52.302;4.634;2022-09-09T05:04:06;32.88;;;6.50;;
56653;SDS011;45096;52.302;4.634;2022-09-09T05:06:33;4.00;;;2.58;;
56653;SDS011;45096;52.302;4.634;2022-09-09T05:08:58;5.78;;;3.90;;
56653;SDS011;45096;52.302;4.634;2022-09-09T05:11:24;5.20;;;3.80;;
56653;SDS011;45096;52.302;4.634;2022-09-09T05:13:51;6.35;;;3.75;;
56653;SDS011;45096;52.302;4.634;2022-09-09T05:16:16;3.83;;;3.50;;
56653;SDS011;45096;52.302;4.634;2022-09-09T05:18:43;4.20;;;3.83;;
56653;SDS011;45096;52.302;4.634;2022-09-09T05:21:08;4.55;;;3.30;;
56653;SDS011;45096;52.302;4.634;2022-09-09T05:23:35;4.63;;;2.78;;
56653;SDS011;45096;52.302;4.634;2022-09-09T05:26:01;6.13;;;3.28;;
56653;SDS011;45096;52.302;4.634;2022-09-09T05:28:28;3.35;;;2.80;;
56653;SDS011;45096;52.302;4.634;2022-09-09T05:30:57;3.67;;;2.97;;
56653;SDS011;45096;52.302;4.634;2022-09-09T05:33:25;3.75;;;2.80;;
56653;SDS011;45096;52.302;4.634;2022-09-09T05:35:55;3.83;;;2.95;;
56653;SDS011;45096;52.302;4.634;2022-09-09T05:38:21;4.20;;;2.65;;
56653;SDS011;45096;52.302;4.634;2022-09-09T05:40:48;3.70;;;2.55;;
56653;SDS011;45096;52.302;4.634;2022-09-09T05:43:16;2.58;;;2.38;;
56653;SDS011;45096;52.302;4.634;2022-09-09T05:45:42;4.63;;;2.45;;
56653;SDS011;45096;52.302;4.634;2022-09-09T05:48:07;3.42;;;2.30;;
56653;SDS011;45096;52.302;4.634;2022-09-09T05:50:33;2.55;;;2.30;;
56653;SDS011;45096;52.302;4.634;2022-09-09T05:52:58;2.05;;;1.83;;
56653;SDS011;45096;52.302;4.634;2022-09-09T05:55:23;3.05;;;2.42;;
56653;SDS011;45096;52.302;4.634;2022-09-09T05:57:50;2.20;;;1.88;;
56653;SDS011;45096;52.302;4.634;2022-09-09T06:00:16;2.20;;;2.00;;
56653;SDS011;45096;52.302;4.634;2022-09-09T06:02:41;2.10;;;1.90;;
56653;SDS011;45096;52.302;4.634;2022-09-09T06:05:07;3.03;;;2.05;;
56653;SDS011;45096;52.302;4.634;2022-09-09T06:07:32;3.00;;;2.10;;
56653;SDS011;45096;52.302;4.634;2022-09-09T06:09:58;2.03;;;1.83;;
56653;SDS011;45096;52.302;4.634;2022-09-09T06:12:23;3.05;;;1.95;;
56653;SDS011;45096;52.302;4.634;2022-09-09T06:14:50;3.05;;;2.28;;
56653;SDS011;45096;52.302;4.634;2022-09-09T06:17:15;4.03;;;1.90;;
56653;SDS011;45096;52.302;4.634;2022-09-09T06:19:41;2.30;;;2.10;;
56653;SDS011;45096;52.302;4.634;2022-09-09T06:22:06;2.47;;;1.90;;
56653;SDS011;45096;52.302;4.634;2022-09-09T06:24:43;4.22;;;2.22;;
56653;SDS011;45096;52.302;4.634;2022-09-09T06:27:15;5.40;;;2.10;;
56653;SDS011;45096;52.302;4.634;2022-09-09T06:30:00;2.35;;;1.85;;
56653;SDS011;45096;52.302;4.634;2022-09-09T06:32:25;1.77;;;1.67;;
56653;SDS011;45096;52.302;4.634;2022-09-09T06:34:50;2.58;;;1.63;;
56653;SDS011;45096;52.302;4.634;2022-09-09T06:37:16;2.17;;;1.85;;
56653;SDS011;45096;52.302;4.634;2022-09-09T06:39:43;7.20;;;2.33;;
56653;SDS011;45096;52.302;4.634;2022-09-09T06:42:09;3.88;;;1.77;;
56653;SDS011;45096;52.302;4.634;2022-09-09T06:44:36;2.50;;;1.80;;
56653;SDS011;45096;52.302;4.634;2022-09-09T06:47:05;2.28;;;1.58;;
56653;SDS011;45096;52.302;4.634;2022-09-09T06:49:44;1.52;;;1.42;;
56653;SDS011;45096;52.302;4.634;2022-09-09T06:52:10;5.25;;;1.67;;
56653;SDS011;45096;52.302;4.634;2022-09-09T06:54:35;4.30;;;1.55;;
56653;SDS011;45096;52.302;4.634;2022-09-09T06:57:01;1.52;;;1.40;;
56653;SDS011;45096;52.302;4.634;2022-09-09T06:59:26;3.00;;;1.90;;
56653;SDS011;45096;52.302;4.634;2022-09-09T07:01:53;3.53;;;1.70;;
56653;SDS011;45096;52.302;4.634;2022-09-09T07:04:47;3.53;;;1.90;;
56653;SDS011;45096;52.302;4.634;2022-09-09T07:07:30;2.58;;;1.58;;
56653;SDS011;45096;52.302;4.634;2022-09-09T07:09:57;3.80;;;1.70;;
56653;SDS011;45096;52.302;4.634;2022-09-09T07:12:23;5.78;;;1.92;;
56653;SDS011;45096;52.302;4.634;2022-09-09T07:14:50;3.70;;;1.80;;
56653;SDS011;45096;52.302;4.634;2022-09-09T07:17:22;4.15;;;2.10;;
56653;SDS011;45096;52.302;4.634;2022-09-09T07:19:58;3.10;;;1.67;;
56653;SDS011;45096;52.302;4.634;2022-09-09T07:22:29;4.03;;;2.22;;
56653;SDS011;45096;52.302;4.634;2022-09-09T07:24:56;6.15;;;2.38;;
56653;SDS011;45096;52.302;4.634;2022-09-09T07:27:23;2.83;;;1.90;;
56653;SDS011;45096;52.302;4.634;2022-09-09T07:30:00;1.98;;;1.60;;
56653;SDS011;45096;52.302;4.634;2022-09-09T07:32:29;2.55;;;1.92;;
56653;SDS011;45096;52.302;4.634;2022-09-09T07:34:58;5.03;;;2.20;;
56653;SDS011;45096;52.302;4.634;2022-09-09T07:37:24;4.90;;;2.25;;
56653;SDS011;45096;52.302;4.634;2022-09-09T07:39:49;5.45;;;2.40;;
56653;SDS011;45096;52.302;4.634;2022-09-09T07:42:29;3.85;;;2.40;;
56653;SDS011;45096;52.302;4.634;2022-09-09T07:45:00;2.72;;;1.85;;
56653;SDS011;45096;52.302;4.634;2022-09-09T07:47:33;5.50;;;2.42;;
56653;SDS011;45096;52.302;4.634;2022-09-09T07:50:08;5.60;;;1.98;;
56653;SDS011;45096;52.302;4.634;2022-09-09T07:52:38;6.72;;;2.53;;
56653;SDS011;45096;52.302;4.634;2022-09-09T07:55:08;4.75;;;2.63;;
56653;SDS011;45096;52.302;4.634;2022-09-09T07:57:36;3.05;;;2.00;;
56653;SDS011;45096;52.302;4.634;2022-09-09T08:00:02;4.18;;;2.33;;
56653;SDS011;45096;52.302;4.634;2022-09-09T08:02:41;4.10;;;2.42;;
56653;SDS011;45096;52.302;4.634;2022-09-09T08:05:26;5.45;;;2.45;;
56653;SDS011;45096;52.302;4.634;2022-09-09T08:08:02;3.72;;;2.00;;
56653;SDS011;45096;52.302;4.634;2022-09-09T08:10:28;6.05;;;2.97;;
56653;SDS011;45096;52.302;4.634;2022-09-09T08:15:35;2.30;;;2.10;;
56653;SDS011;45096;52.302;4.634;2022-09-09T08:18:10;3.83;;;2.53;;
56653;SDS011;45096;52.302;4.634;2022-09-09T08:20:44;3.45;;;2.22;;
56653;SDS011;45096;52.302;4.634;2022-09-09T08:23:20;7.45;;;2.92;;
56653;SDS011;45096;52.302;4.634;2022-09-09T08:26:02;6.05;;;2.60;;
56653;SDS011;45096;52.302;4.634;2022-09-09T08:28:39;7.63;;;3.00;;
56653;SDS011;45096;52.302;4.634;2022-09-09T08:31:07;7.63;;;2.50;;
56653;SDS011;45096;52.302;4.634;2022-09-09T08:33:37;4.38;;;2.20;;
56653;SDS011;45096;52.302;4.634;2022-09-09T08:36:12;3.65;;;2.83;;
56653;SDS011;45096;52.302;4.634;2022-09-09T08:38:47;4.05;;;2.55;;
56653;SDS011;45096;52.302;4.634;2022-09-09T08:41:34;5.82;;;3.90;;
56653;SDS011;45096;52.302;4.634;2022-09-09T08:44:13;6.45;;;4.63;;
56653;SDS011;45096;52.302;4.634;2022-09-09T08:46:51;7.25;;;3.55;;
56653;SDS011;45096;52.302;4.634;2022-09-09T08:49:24;5.28;;;3.17;;
56653;SDS011;45096;52.302;4.634;2022-09-09T08:52:12;2.53;;;2.33;;
56653;SDS011;45096;52.302;4.634;2022-09-09T08:54:53;5.75;;;3.00;;
56653;SDS011;45096;52.302;4.634;2022-09-09T08:57:27;3.60;;;2.60;;
56653;SDS011;45096;52.302;4.634;2022-09-09T09:00:34;3.63;;;3.05;;
56653;SDS011;45096;52.302;4.634;2022-09-09T09:03:09;5.85;;;3.17;;
56653;SDS011;45096;52.302;4.634;2022-09-09T09:11:17;3.45;;;3.20;;
56653;SDS011;45096;52.302;4.634;2022-09-09T09:13:50;6.00;;;3.45;;
56653;SDS011;45096;52.302;4.634;2022-09-09T09:16:29;5.00;;;3.95;;
56653;SDS011;45096;52.302;4.634;2022-09-09T09:18:57;4.13;;;2.67;;
56653;SDS011;45096;52.302;4.634;2022-09-09T09:21:34;3.78;;;2.90;;
56653;SDS011;45096;52.302;4.634;2022-09-09T09:27:01;4.93;;;2.85;;
56653;SDS011;45096;52.302;4.634;2022-09-09T09:29:35;5.68;;;3.05;;
56653;SDS011;45096;52.302;4.634;2022-09-09T09:32:01;3.42;;;3.10;;
56653;SDS011;45096;52.302;4.634;2022-09-09T09:34:27;6.43;;;3.10;;
56653;SDS011;45096;52.302;4.634;2022-09-09T09:36:54;4.45;;;3.08;;
56653;SDS011;45096;52.302;4.634;2022-09-09T09:39:26;4.32;;;2.72;;
56653;SDS011;45096;52.302;4.634;2022-09-09T09:41:53;5.88;;;3.08;;
56653;SDS011;45096;52.302;4.634;2022-09-09T09:44:22;5.05;;;3.03;;
56653;SDS011;45096;52.302;4.634;2022-09-09T09:46:50;6.03;;;2.95;;
56653;SDS011;45096;52.302;4.634;2022-09-09T09:49:15;6.47;;;2.85;;
56653;SDS011;45096;52.302;4.634;2022-09-09T09:51:41;4.43;;;2.63;;
56653;SDS011;45096;52.302;4.634;2022-09-09T09:54:13;6.22;;;3.30;;
56653;SDS011;45096;52.302;4.634;2022-09-09T09:56:42;5.65;;;2.83;;
56653;SDS011;45096;52.302;4.634;2022-09-09T09:59:18;5.72;;;2.83;;
56653;SDS011;45096;52.302;4.634;2022-09-09T10:01:45;6.68;;;3.00;;
56653;SDS011;45096;52.302;4.634;2022-09-09T10:04:13;4.43;;;3.28;;
56653;SDS011;45096;52.302;4.634;2022-09-09T10:06:40;3.67;;;3.25;;
56653;SDS011;45096;52.302;4.634;2022-09-09T10:11:49;6.78;;;2.95;;
56653;SDS011;45096;52.302;4.634;2022-09-09T10:14:19;4.65;;;3.25;;
56653;SDS011;45096;52.302;4.634;2022-09-09T10:19:33;3.70;;;2.65;;
56653;SDS011;45096;52.302;4.634;2022-09-09T10:22:04;4.40;;;2.70;;
56653;SDS011;45096;52.302;4.634;2022-09-09T10:24:51;4.65;;;2.65;;
56653;SDS011;45096;52.302;4.634;2022-09-09T10:27:47;3.00;;;2.65;;
56653;SDS011;45096;52.302;4.634;2022-09-09T10:30:24;4.38;;;2.78;;
56653;SDS011;45096;52.302;4.634;2022-09-09T10:32:54;5.18;;;2.50;;
56653;SDS011;45096;52.302;4.634;2022-09-09T10:35:30;4.22;;;2.50;;
56653;SDS011;45096;52.302;4.634;2022-09-09T10:38:01;4.57;;;2.58;;
56653;SDS011;45096;52.302;4.634;2022-09-09T10:40:37;3.67;;;2.25;;
56653;SDS011;45096;52.302;4.634;2022-09-09T10:43:09;4.00;;;2.55;;
56653;SDS011;45096;52.302;4.634;2022-09-09T10:45:46;7.22;;;5.10;;
56653;SDS011;45096;52.302;4.634;2022-09-09T10:48:25;8.50;;;3.40;;
56653;SDS011;45096;52.302;4.634;2022-09-09T10:50:57;4.13;;;2.50;;
56653;SDS011;45096;52.302;4.634;2022-09-09T10:53:33;4.72;;;2.50;;
56653;SDS011;45096;52.302;4.634;2022-09-09T10:56:01;3.97;;;2.28;;
56653;SDS011;45096;52.302;4.634;2022-09-09T10:58:31;2.80;;;2.42;;
56653;SDS011;45096;52.302;4.634;2022-09-09T11:01:02;3.10;;;2.20;;
56653;SDS011;45096;52.302;4.634;2022-09-09T11:03:34;5.03;;;3.90;;
56653;SDS011;45096;52.302;4.634;2022-09-09T11:06:01;6.25;;;4.50;;
56653;SDS011;45096;52.302;4.634;2022-09-09T11:08:30;6.00;;;3.95;;
56653;SDS011;45096;52.302;4.634;2022-09-09T11:10:58;3.67;;;3.05;;
56653;SDS011;45096;52.302;4.634;2022-09-09T11:13:29;7.82;;;3.13;;
56653;SDS011;45096;52.302;4.634;2022-09-09T11:16:00;4.90;;;2.70;;
56653;SDS011;45096;52.302;4.634;2022-09-09T11:18:30;5.30;;;2.35;;
56653;SDS011;45096;52.302;4.634;2022-09-09T11:20:58;4.55;;;2.42;;
56653;SDS011;45096;52.302;4.634;2022-09-09T11:23:26;5.50;;;2.60;;
56653;SDS011;45096;52.302;4.634;2022-09-09T11:25:53;3.75;;;2.20;;
56653;SDS011;45096;52.302;4.634;2022-09-09T11:28:26;4.13;;;1.90;;
56653;SDS011;45096;52.302;4.634;2022-09-09T11:31:08;2.30;;;2.00;;
56653;SDS011;45096;52.302;4.634;2022-09-09T11:39:30;4.95;;;2.17;;
56653;SDS011;45096;52.302;4.634;2022-09-09T11:42:18;4.03;;;2.47;;
56653;SDS011;45096;52.302;4.634;2022-09-09T11:44:46;5.70;;;3.60;;
56653;SDS011;45096;52.302;4.634;2022-09-09T11:47:16;4.00;;;3.50;;
56653;SDS011;45096;52.302;4.634;2022-09-09T11:49:45;4.47;;;2.72;;
56653;SDS011;45096;52.302;4.634;2022-09-09T11:52:11;4.25;;;2.72;;
56653;SDS011;45096;52.302;4.634;2022-09-09T11:54:44;3.03;;;2.05;;
56653;SDS011;45096;52.302;4.634;2022-09-09T11:57:16;3.17;;;2.22;;
56653;SDS011;45096;52.302;4.634;2022-09-09T11:59:52;2.55;;;2.25;;
56653;SDS011;45096;52.302;4.634;2022-09-09T12:02:18;6.30;;;2.40;;
56653;SDS011;45096;52.302;4.634;2022-09-09T12:04:48;4.38;;;2.67;;
56653;SDS011;45096;52.302;4.634;2022-09-09T12:07:24;4.43;;;1.80;;
56653;SDS011;45096;52.302;4.634;2022-09-09T12:09:52;2.47;;;2.20;;
56653;SDS011;45096;52.302;4.634;2022-09-09T12:12:22;3.28;;;2.00;;
56653;SDS011;45096;52.302;4.634;2022-09-09T12:18:01;3.17;;;2.13;;
56653;SDS011;45096;52.302;4.634;2022-09-09T12:20:30;3.15;;;1.98;;
56653;SDS011;45096;52.302;4.634;2022-09-09T12:25:57;3.42;;;1.80;;
56653;SDS011;45096;52.302;4.634;2022-09-09T12:28:27;3.35;;;2.15;;
56653;SDS011;45096;52.302;4.634;2022-09-09T12:31:04;4.57;;;2.72;;
56653;SDS011;45096;52.302;4.634;2022-09-09T12:33:35;2.67;;;2.42;;
56653;SDS011;45096;52.302;4.634;2022-09-09T12:36:02;3.47;;;2.35;;
56653;SDS011;45096;52.302;4.634;2022-09-09T12:38:30;5.53;;;1.85;;
56653;SDS011;45096;52.302;4.634;2022-09-09T12:40:58;1.92;;;1.83;;
56653;SDS011;45096;52.302;4.634;2022-09-09T12:43:27;2.13;;;2.00;;
56653;SDS011;45096;52.302;4.634;2022-09-09T12:45:53;8.23;;;4.55;;
56653;SDS011;45096;52.302;4.634;2022-09-09T12:48:26;5.70;;;5.07;;
56653;SDS011;45096;52.302;4.634;2022-09-09T12:50:56;4.82;;;4.32;;
56653;SDS011;45096;52.302;4.634;2022-09-09T12:56:25;3.67;;;2.72;;
56653;SDS011;45096;52.302;4.634;2022-09-09T12:58:52;4.93;;;2.70;;
56653;SDS011;45096;52.302;4.634;2022-09-09T13:01:21;3.80;;;1.98;;
56653;SDS011;45096;52.302;4.634;2022-09-09T13:09:52;3.88;;;2.67;;
56653;SDS011;45096;52.302;4.634;2022-09-09T13:12:18;3.75;;;2.83;;
56653;SDS011;45096;52.302;4.634;2022-09-09T13:14:44;3.85;;;2.78;;
56653;SDS011;45096;52.302;4.634;2022-09-09T13:17:15;3.17;;;2.40;;
56653;SDS011;45096;52.302;4.634;2022-09-09T13:19:44;2.60;;;2.05;;
56653;SDS011;45096;52.302;4.634;2022-09-09T13:22:12;2.78;;;2.20;;
56653;SDS011;45096;52.302;4.634;2022-09-09T13:24:39;6.00;;;2.25;;
56653;SDS011;45096;52.302;4.634;2022-09-09T13:27:20;2.05;;;1.85;;
56653;SDS011;45096;52.302;4.634;2022-09-09T13:29:51;4.65;;;2.13;;
56653;SDS011;45096;52.302;4.634;2022-09-09T13:32:17;2.90;;;2.10;;
56653;SDS011;45096;52.302;4.634;2022-09-09T13:34:50;4.53;;;2.25;;
56653;SDS011;45096;52.302;4.634;2022-09-09T13:37:17;4.28;;;3.88;;
56653;SDS011;45096;52.302;4.634;2022-09-09T13:39:50;4.80;;;4.15;;
56653;SDS011;45096;52.302;4.634;2022-09-09T13:42:21;3.13;;;2.65;;
56653;SDS011;45096;52.302;4.634;2022-09-09T13:44:49;2.00;;;1.90;;
56653;SDS011;45096;52.302;4.634;2022-09-09T13:47:17;2.40;;;2.05;;
56653;SDS011;45096;52.302;4.634;2022-09-09T13:49:43;2.80;;;1.90;;
56653;SDS011;45096;52.302;4.634;2022-09-09T13:52:10;2.83;;;2.10;;
56653;SDS011;45096;52.302;4.634;2022-09-09T13:54:36;3.13;;;1.90;;
56653;SDS011;45096;52.302;4.634;2022-09-09T13:57:01;3.67;;;1.83;;
56653;SDS011;45096;52.302;4.634;2022-09-09T13:59:28;3.33;;;1.80;;
56653;SDS011;45096;52.302;4.634;2022-09-09T14:01:53;3.10;;;2.03;;
56653;SDS011;45096;52.302;4.634;2022-09-09T14:04:19;1.67;;;1.58;;
56653;SDS011;45096;52.302;4.634;2022-09-09T14:06:45;2.65;;;1.65;;
56653;SDS011;45096;52.302;4.634;2022-09-09T14:09:12;1.95;;;1.75;;
56653;SDS011;45096;52.302;4.634;2022-09-09T14:11:39;2.53;;;1.60;;
56653;SDS011;45096;52.302;4.634;2022-09-09T14:14:04;1.90;;;1.50;;
56653;SDS011;45096;52.302;4.634;2022-09-09T14:16:31;1.65;;;1.55;;
56653;SDS011;45096;52.302;4.634;2022-09-09T14:18:56;2.63;;;1.70;;
56653;SDS011;45096;52.302;4.634;2022-09-09T14:21:22;2.60;;;1.83;;
56653;SDS011;45096;52.302;4.634;2022-09-09T14:23:47;2.20;;;1.67;;
56653;SDS011;45096;52.302;4.634;2022-09-09T14:26:13;1.52;;;1.42;;
56653;SDS011;45096;52.302;4.634;2022-09-09T14:28:38;2.15;;;1.20;;
56653;SDS011;45096;52.302;4.634;2022-09-09T14:31:03;3.92;;;1.35;;
56653;SDS011;45096;52.302;4.634;2022-09-09T14:33:30;5.38;;;3.22;;
56653;SDS011;45096;52.302;4.634;2022-09-09T14:35:56;3.15;;;2.30;;
56653;SDS011;45096;52.302;4.634;2022-09-09T14:38:22;2.80;;;1.98;;
56653;SDS011;45096;52.302;4.634;2022-09-09T14:40:47;1.55;;;1.30;;
56653;SDS011;45096;52.302;4.634;2022-09-09T14:43:12;3.03;;;1.20;;
56653;SDS011;45096;52.302;4.634;2022-09-09T14:45:38;1.88;;;1.27;;
56653;SDS011;45096;52.302;4.634;2022-09-09T14:48:03;2.17;;;1.35;;
56653;SDS011;45096;52.302;4.634;2022-09-09T14:50:30;2.05;;;1.33;;
56653;SDS011;45096;52.302;4.634;2022-09-09T14:52:55;4.68;;;1.65;;
56653;SDS011;45096;52.302;4.634;2022-09-09T14:55:21;3.90;;;1.40;;
56653;SDS011;45096;52.302;4.634;2022-09-09T14:57:46;3.15;;;1.10;;
56653;SDS011;45096;52.302;4.634;2022-09-09T15:00:12;9.77;;;5.82;;
56653;SDS011;45096;52.302;4.634;2022-09-09T15:02:37;45.72;;;32.40;;
56653;SDS011;45096;52.302;4.634;2022-09-09T15:05:03;52.55;;;38.70;;
56653;SDS011;45096;52.302;4.634;2022-09-09T15:07:30;36.70;;;26.30;;
56653;SDS011;45096;52.302;4.634;2022-09-09T15:09:55;17.10;;;13.48;;
56653;SDS011;45096;52.302;4.634;2022-09-09T15:12:21;7.18;;;6.10;;
56653;SDS011;45096;52.302;4.634;2022-09-09T15:14:46;7.00;;;5.38;;
56653;SDS011;45096;52.302;4.634;2022-09-09T15:17:12;6.03;;;4.43;;
56653;SDS011;45096;52.302;4.634;2022-09-09T15:19:37;5.05;;;4.60;;
56653;SDS011;45096;52.302;4.634;2022-09-09T15:22:03;6.57;;;4.68;;
56653;SDS011;45096;52.302;4.634;2022-09-09T15:24:30;4.55;;;3.90;;
56653;SDS011;45096;52.302;4.634;2022-09-09T15:26:55;4.60;;;3.22;;
56653;SDS011;45096;52.302;4.634;2022-09-09T15:29:21;5.88;;;3.63;;
56653;SDS011;45096;52.302;4.634;2022-09-09T15:31:46;6.03;;;4.45;;
56653;SDS011;45096;52.302;4.634;2022-09-09T15:34:11;6.47;;;4.88;;
56653;SDS011;45096;52.302;4.634;2022-09-09T15:36:37;5.25;;;4.57;;
56653;SDS011;45096;52.302;4.634;2022-09-09T15:39:04;6.70;;;4.63;;